createdAt,value
2023-01-22T00:02:59.019Z,22.85
2023-01-22T00:06:02.238Z,18.63
2023-01-22T00:09:04.259Z,19.20
2023-01-22T00:12:06.353Z,18.08
2023-01-22T00:15:08.977Z,19.95
2023-01-22T00:18:10.737Z,18.48
2023-01-22T00:21:14.005Z,18.77
2023-01-22T00:24:15.763Z,19.23
2023-01-22T00:27:17.499Z,18.27
2023-01-22T00:30:19.970Z,20.50
2023-01-22T00:33:21.873Z,19.50
2023-01-22T00:36:25.157Z,20.90
2023-01-22T00:39:26.943Z,16.92
2023-01-22T00:42:28.681Z,20.92
2023-01-22T00:45:30.473Z,24.35
2023-01-22T00:48:32.281Z,20.95
2023-01-22T00:51:35.579Z,21.50
2023-01-22T00:54:37.336Z,17.70
2023-01-22T00:57:39.112Z,20.27
2023-01-22T01:00:40.895Z,20.33
2023-01-22T01:03:43.135Z,22.33
2023-01-22T01:06:46.371Z,24.10
2023-01-22T01:09:48.144Z,18.73
2023-01-22T01:12:49.874Z,23.55
2023-01-22T01:15:58.964Z,20.23
2023-01-22T01:19:02.100Z,23.23
2023-01-22T01:22:05.235Z,20.73
2023-01-22T01:25:07.377Z,21.80
2023-01-22T01:28:09.152Z,19.35
2023-01-22T01:31:12.851Z,20.08
2023-01-22T01:34:14.686Z,19.75
2023-01-22T01:37:17.858Z,19.80
2023-01-22T01:40:20.008Z,19.95
2023-01-22T01:43:21.938Z,18.30
2023-01-22T01:46:25.219Z,16.67
2023-01-22T01:49:31.273Z,19.80
2023-01-22T01:52:34.515Z,19.60
2023-01-22T01:55:39.491Z,19.05
2023-01-22T01:58:43.324Z,19.10
2023-01-22T02:01:47.763Z,16.70
2023-01-22T02:04:50.818Z,17.27
2023-01-22T02:07:54.168Z,16.98
2023-01-22T02:10:59.167Z,16.30
2023-01-22T02:14:04.550Z,19.27
2023-01-22T02:17:07.926Z,16.60
2023-01-22T02:20:11.053Z,15.45
2023-01-22T02:23:14.209Z,16.63
2023-01-22T02:26:15.989Z,19.70
2023-01-22T02:29:17.763Z,16.17
2023-01-22T02:32:19.598Z,17.55
2023-01-22T02:35:21.427Z,19.05
2023-01-22T02:38:24.627Z,18.88
2023-01-22T02:41:27.475Z,20.55
2023-01-22T02:44:29.330Z,21.05
2023-01-22T02:47:31.044Z,22.63
2023-01-22T02:50:32.881Z,21.17
2023-01-22T02:53:36.018Z,23.73
2023-01-22T02:56:37.851Z,23.10
2023-01-22T02:59:39.609Z,21.50
2023-01-22T03:02:41.374Z,20.08
2023-01-22T03:05:49.691Z,24.13
2023-01-22T03:08:55.535Z,23.05
2023-01-22T03:11:57.945Z,22.38
2023-01-22T03:14:59.774Z,19.52
2023-01-22T03:18:01.585Z,20.70
2023-01-22T03:21:06.021Z,19.50
2023-01-22T03:24:09.743Z,19.02
2023-01-22T03:27:11.528Z,17.65
2023-01-22T03:30:13.460Z,17.27
2023-01-22T03:33:15.245Z,17.42
2023-01-22T03:36:16.981Z,20.45
2023-01-22T03:39:20.210Z,19.02
2023-01-22T03:42:24.834Z,17.00
2023-01-22T03:45:26.597Z,16.38
2023-01-22T03:48:28.976Z,18.05
2023-01-22T03:51:30.698Z,18.85
2023-01-22T03:54:33.833Z,16.40
2023-01-22T03:57:35.578Z,19.13
2023-01-22T04:00:39.216Z,21.67
2023-01-22T04:03:41.548Z,21.73
2023-01-22T04:06:43.512Z,19.38
2023-01-22T04:09:46.662Z,18.50
2023-01-22T04:12:48.444Z,17.83
2023-01-22T04:15:50.251Z,21.45
2023-01-22T04:18:52.048Z,21.45
2023-01-22T04:21:53.858Z,23.63
2023-01-22T04:24:57.091Z,20.95
2023-01-22T04:27:58.931Z,20.48
2023-01-22T04:31:00.988Z,22.83
2023-01-22T04:34:02.870Z,23.67
2023-01-22T04:37:04.612Z,21.63
2023-01-22T04:40:09.642Z,27.27
2023-01-22T04:43:11.914Z,29.95
2023-01-22T04:46:13.735Z,25.02
2023-01-22T04:49:15.528Z,19.35
2023-01-22T04:52:17.434Z,17.35
2023-01-22T04:55:20.695Z,20.05
2023-01-22T04:58:22.502Z,26.40
2023-01-22T05:01:24.528Z,30.95
2023-01-22T05:04:26.567Z,31.45
2023-01-22T05:07:28.413Z,25.92
2023-01-22T05:10:31.633Z,23.80
2023-01-22T05:13:33.381Z,19.65
2023-01-22T05:16:35.207Z,20.65
2023-01-22T05:19:37.044Z,27.70
2023-01-22T05:22:38.825Z,24.48
2023-01-22T05:25:47.558Z,22.95
2023-01-22T05:28:49.322Z,26.27
2023-01-22T05:31:51.159Z,20.38
2023-01-22T05:34:52.909Z,22.95
2023-01-22T05:37:55.997Z,25.80
2023-01-22T05:40:59.309Z,21.42
2023-01-22T05:44:01.441Z,19.00
2023-01-22T05:47:03.316Z,22.98
2023-01-22T05:50:05.869Z,17.77
2023-01-22T05:53:08.144Z,18.48
2023-01-22T05:56:11.316Z,21.55
2023-01-22T05:59:13.328Z,22.92
2023-01-22T06:02:15.170Z,21.00
2023-01-22T06:05:17.081Z,24.63
2023-01-22T06:08:18.921Z,21.65
2023-01-22T06:11:22.230Z,65.30
2023-01-22T06:14:24.010Z,42.90
2023-01-22T06:17:25.791Z,30.25
2023-01-22T06:20:27.594Z,43.55
2023-01-22T06:23:29.548Z,54.13
2023-01-22T06:26:32.711Z,118.03
2023-01-22T06:29:34.455Z,135.27
2023-01-22T06:32:36.207Z,27.17
2023-01-22T06:35:37.955Z,27.85
2023-01-22T06:38:39.712Z,25.63
2023-01-22T06:41:42.824Z,20.90
2023-01-22T06:44:44.548Z,21.52
2023-01-22T06:47:46.738Z,24.63
2023-01-22T06:50:48.855Z,24.90
2023-01-22T06:53:50.851Z,28.52
2023-01-22T06:56:54.041Z,25.80
2023-01-22T06:59:55.912Z,24.52
2023-01-22T07:02:57.656Z,24.00
2023-01-22T07:06:01.000Z,22.23
2023-01-22T07:09:02.841Z,28.23
2023-01-22T07:12:06.692Z,76.15
2023-01-22T07:15:09.094Z,63.20
2023-01-22T07:18:11.589Z,32.90
2023-01-22T07:21:13.363Z,23.35
2023-01-22T07:24:15.291Z,25.38
2023-01-22T07:27:18.586Z,25.85
2023-01-22T07:30:20.793Z,22.88
2023-01-22T07:33:22.784Z,22.35
2023-01-22T07:36:24.661Z,24.70
2023-01-22T07:39:26.470Z,25.02
2023-01-22T07:42:29.558Z,27.02
2023-01-22T07:45:31.361Z,39.33
2023-01-22T07:48:33.197Z,35.42
2023-01-22T07:51:35.565Z,36.70
2023-01-22T07:54:37.456Z,31.30
2023-01-22T07:57:40.572Z,29.10
2023-01-22T08:00:42.515Z,25.33
2023-01-22T08:03:44.618Z,30.65
2023-01-22T08:06:46.468Z,25.80
2023-01-22T08:09:48.270Z,26.30
2023-01-22T08:12:51.509Z,26.70
2023-01-22T08:15:53.380Z,28.75
2023-01-22T08:18:55.215Z,25.38
2023-01-22T08:21:57.203Z,34.80
2023-01-22T08:24:59.090Z,24.20
2023-01-22T08:28:04.345Z,32.22
2023-01-22T08:31:09.400Z,34.50
2023-01-22T08:34:13.227Z,30.90
2023-01-22T08:37:15.022Z,29.45
2023-01-22T08:40:18.635Z,28.02
2023-01-22T08:43:21.928Z,30.33
2023-01-22T08:46:23.784Z,25.75
2023-01-22T08:49:25.686Z,24.60
2023-01-22T08:52:27.681Z,24.30
2023-01-22T08:55:29.572Z,26.95
2023-01-22T08:58:32.818Z,24.23
2023-01-22T09:01:34.634Z,28.05
2023-01-22T09:04:36.461Z,24.23
2023-01-22T09:07:38.305Z,23.60
2023-01-22T09:10:40.844Z,26.40
2023-01-22T09:13:44.156Z,27.80
2023-01-22T09:16:46.032Z,26.30
2023-01-22T09:19:47.900Z,26.23
2023-01-22T09:22:49.790Z,26.25
2023-01-22T09:25:51.586Z,27.40
2023-01-22T09:28:54.757Z,25.77
2023-01-22T09:31:56.688Z,26.48
2023-01-22T09:34:58.490Z,25.33
2023-01-22T09:38:00.240Z,21.83
2023-01-22T09:41:07.088Z,22.40
2023-01-22T09:44:18.012Z,23.58
2023-01-22T09:47:26.415Z,20.88
2023-01-22T09:50:32.203Z,22.85
2023-01-22T09:53:34.796Z,20.27
2023-01-22T09:56:43.746Z,22.88
2023-01-22T09:59:49.215Z,21.52
2023-01-22T10:02:58.025Z,19.58
2023-01-22T10:06:03.141Z,20.25
2023-01-22T10:09:13.185Z,24.27
2023-01-22T10:12:14.923Z,20.17
2023-01-22T10:15:22.630Z,25.20
2023-01-22T10:18:33.364Z,23.88
2023-01-22T10:21:42.235Z,21.50
2023-01-22T10:24:44.004Z,20.63
2023-01-22T10:27:46.632Z,23.38
2023-01-22T10:30:50.366Z,24.70
2023-01-22T10:33:57.406Z,24.45
2023-01-22T10:37:01.944Z,22.40
2023-01-22T10:40:04.056Z,22.75
2023-01-22T10:43:10.485Z,25.88
2023-01-22T10:46:20.012Z,25.48
2023-01-22T10:49:23.917Z,24.67
2023-01-22T10:52:34.766Z,25.50
2023-01-22T10:55:41.885Z,23.98
2023-01-22T10:58:47.418Z,23.58
2023-01-22T11:01:57.473Z,23.58
2023-01-22T11:05:07.892Z,24.90
2023-01-22T11:08:15.362Z,24.65
2023-01-22T11:11:23.614Z,22.45
2023-01-22T11:14:29.702Z,24.67
2023-01-22T11:17:40.462Z,27.25
2023-01-22T11:20:47.684Z,26.83
2023-01-22T11:23:55.862Z,22.58
2023-01-22T11:27:15.398Z,30.93
2023-01-22T11:33:49.575Z,24.98
2023-01-22T11:37:00.363Z,25.92
2023-01-22T11:40:18.668Z,26.90
2023-01-22T11:43:33.643Z,24.00
2023-01-22T11:46:50.279Z,23.77
2023-01-22T11:50:06.812Z,21.25
2023-01-22T11:53:31.111Z,20.23
2023-01-22T11:56:48.731Z,24.58
2023-01-22T12:00:23.046Z,23.60
2023-01-22T12:04:03.208Z,24.15
2023-01-22T12:07:42.392Z,21.77
2023-01-22T12:10:59.437Z,20.58
2023-01-22T12:14:32.194Z,21.75
2023-01-22T12:17:46.793Z,18.67
2023-01-22T12:21:05.871Z,20.42
2023-01-22T12:24:18.978Z,24.80
2023-01-22T12:27:26.274Z,29.08
2023-01-22T12:30:36.010Z,26.55
2023-01-22T12:33:40.534Z,24.02
2023-01-22T12:36:43.956Z,23.42
2023-01-22T12:39:55.275Z,25.13
2023-01-22T12:43:01.554Z,24.70
2023-01-22T12:46:11.872Z,27.17
2023-01-22T12:49:14.418Z,26.67
2023-01-22T12:52:36.462Z,26.92
2023-01-22T12:55:40.636Z,25.60
2023-01-22T12:58:43.399Z,29.45
2023-01-22T13:01:45.895Z,24.92
2023-01-22T13:04:47.708Z,22.88
2023-01-22T13:08:00.983Z,28.88
2023-01-22T13:11:06.461Z,27.00
2023-01-22T13:14:19.162Z,22.52
2023-01-22T13:17:24.526Z,41.50
2023-01-22T13:20:28.091Z,26.05
2023-01-22T13:23:31.621Z,22.60
2023-01-22T13:26:38.047Z,22.17
2023-01-22T13:29:40.243Z,20.75
2023-01-22T13:32:42.375Z,24.50
2023-01-22T13:35:47.674Z,24.02
2023-01-22T13:38:54.612Z,19.75
2023-01-22T13:42:00.031Z,22.63
2023-01-22T13:45:02.474Z,20.92
2023-01-22T13:48:05.480Z,18.90
2023-01-22T13:51:15.345Z,20.33
2023-01-22T13:54:24.474Z,20.58
2023-01-22T13:57:28.035Z,20.38
2023-01-22T14:00:31.927Z,22.42
2023-01-22T14:03:34.990Z,19.27
2023-01-22T14:06:44.461Z,21.65
2023-01-22T14:09:46.384Z,21.83
2023-01-22T14:13:03.134Z,21.13
2023-01-22T14:16:06.038Z,21.27
2023-01-22T14:19:08.855Z,20.88
2023-01-22T14:22:10.988Z,22.00
2023-01-22T14:25:13.268Z,22.35
2023-01-22T14:28:18.063Z,22.85
2023-01-22T14:31:20.490Z,24.92
2023-01-22T14:34:24.491Z,22.35
2023-01-22T14:37:29.201Z,27.20
2023-01-22T14:40:32.750Z,24.00
2023-01-22T14:43:36.679Z,28.27
2023-01-22T14:46:39.248Z,26.70
2023-01-22T14:49:42.259Z,23.98
2023-01-22T14:52:45.026Z,22.98
2023-01-22T14:55:47.095Z,25.35
2023-01-22T14:58:51.023Z,24.70
2023-01-22T15:01:54.006Z,28.80
2023-01-22T15:04:56.528Z,31.25
2023-01-22T15:07:58.707Z,33.75
2023-01-22T15:11:01.702Z,36.90
2023-01-22T15:14:05.645Z,36.15
2023-01-22T15:17:07.880Z,30.83
2023-01-22T15:20:12.180Z,34.38
2023-01-22T15:23:14.668Z,27.48
2023-01-22T15:26:25.435Z,25.65
2023-01-22T15:29:31.932Z,24.63
2023-01-22T15:32:34.093Z,34.42
2023-01-22T15:35:36.712Z,35.05
2023-01-22T15:38:39.045Z,59.03
2023-01-22T15:41:41.875Z,57.53
2023-01-22T15:44:46.491Z,36.63
2023-01-22T15:47:48.591Z,24.77
2023-01-22T15:50:51.561Z,22.83
2023-01-22T15:53:55.402Z,36.20
2023-01-22T15:56:58.130Z,21.85
2023-01-22T16:00:02.122Z,57.13
2023-01-22T16:03:06.415Z,97.43
2023-01-22T16:06:10.270Z,80.53
2023-01-22T16:09:12.980Z,51.38
2023-01-22T16:12:15.939Z,45.80
2023-01-22T16:15:19.748Z,38.25
2023-01-22T16:18:22.022Z,86.47
2023-01-22T16:21:25.047Z,92.13
2023-01-22T16:24:27.552Z,63.30
2023-01-22T16:27:32.613Z,43.05
2023-01-22T16:30:37.117Z,57.90
2023-01-22T16:33:43.235Z,81.30
2023-01-22T16:36:46.348Z,54.03
2023-01-22T16:39:48.845Z,39.22
2023-01-22T16:43:02.107Z,31.13
2023-01-22T16:46:06.047Z,24.70
2023-01-22T16:49:12.776Z,24.63
2023-01-22T16:52:22.529Z,25.70
2023-01-22T16:55:25.908Z,25.95
2023-01-22T16:58:29.739Z,42.20
2023-01-22T17:01:34.546Z,61.35
2023-01-22T17:04:36.999Z,60.40
2023-01-22T17:07:40.552Z,60.50
2023-01-22T17:10:43.051Z,50.10
2023-01-22T17:13:47.892Z,38.60
2023-01-22T17:16:52.071Z,41.67
2023-01-22T17:19:55.015Z,39.95
2023-01-22T17:22:59.405Z,65.28
2023-01-22T17:26:06.330Z,72.95
2023-01-22T17:29:09.448Z,79.57
2023-01-22T17:32:13.609Z,61.38
2023-01-22T17:35:17.277Z,32.20
2023-01-22T17:38:20.277Z,38.75
2023-01-22T17:41:25.331Z,60.15
2023-01-22T17:44:28.709Z,57.65
2023-01-22T17:47:33.456Z,51.22
2023-01-22T17:50:36.083Z,62.15
2023-01-22T17:53:41.879Z,53.30
2023-01-22T17:56:44.603Z,44.15
2023-01-22T17:59:47.390Z,43.13
2023-01-22T18:02:51.819Z,40.95
2023-01-22T18:05:54.521Z,47.05
2023-01-22T18:08:58.026Z,47.13
2023-01-22T18:12:01.049Z,52.97
2023-01-22T18:15:04.271Z,59.28
2023-01-22T18:18:09.054Z,58.90
2023-01-22T18:21:16.011Z,62.38
2023-01-22T18:24:22.752Z,58.22
2023-01-22T18:27:26.230Z,58.40
2023-01-22T18:30:29.847Z,52.22
2023-01-22T18:33:34.583Z,45.95
2023-01-22T18:36:39.325Z,40.70
2023-01-22T18:39:42.681Z,38.80
2023-01-22T18:42:45.798Z,31.17
2023-01-22T18:45:48.364Z,33.60
2023-01-22T18:48:55.709Z,33.35
2023-01-22T18:51:58.195Z,39.05
2023-01-22T18:55:00.970Z,36.45
2023-01-22T18:58:03.803Z,35.45
2023-01-22T19:01:12.872Z,36.60
2023-01-22T19:04:18.408Z,37.00
2023-01-22T19:07:21.135Z,36.47
2023-01-22T19:10:24.339Z,37.03
2023-01-22T19:13:28.367Z,34.83
2023-01-22T19:16:31.818Z,37.30
2023-01-22T19:19:36.777Z,43.25
2023-01-22T19:22:39.612Z,38.78
2023-01-22T19:25:42.678Z,36.08
2023-01-22T19:28:45.645Z,37.63
2023-01-22T19:31:50.557Z,44.85
2023-01-22T19:34:55.596Z,32.30
2023-01-22T19:37:58.732Z,32.10
2023-01-22T19:41:01.637Z,41.78
2023-01-22T19:44:04.804Z,39.35
2023-01-22T19:47:07.557Z,36.28
2023-01-22T19:50:14.930Z,36.88
2023-01-22T19:53:17.712Z,37.38
2023-01-22T19:56:23.812Z,38.45
2023-01-22T19:59:27.823Z,37.58
2023-01-22T20:02:31.307Z,42.03
2023-01-22T20:05:39.631Z,35.38
2023-01-22T20:08:43.262Z,26.70
2023-01-22T20:11:54.956Z,37.45
2023-01-22T20:14:57.608Z,37.08
2023-01-22T20:18:00.392Z,37.53
2023-01-22T20:21:05.207Z,38.65
2023-01-22T20:24:09.693Z,38.28
2023-01-22T20:27:12.413Z,40.25
2023-01-22T20:30:16.121Z,37.60
2023-01-22T20:33:18.647Z,41.80
2023-01-22T20:36:24.335Z,42.92
2023-01-22T20:39:27.135Z,36.78
2023-01-22T20:42:30.354Z,35.60
2023-01-22T20:45:33.352Z,34.85
2023-01-22T20:48:37.576Z,40.20
2023-01-22T20:51:42.752Z,37.80
2023-01-22T20:55:00.573Z,49.97
2023-01-22T20:58:04.790Z,73.63
2023-01-22T21:01:09.561Z,53.63
2023-01-22T21:04:14.856Z,32.15
2023-01-22T21:07:19.814Z,33.08
2023-01-22T21:10:22.832Z,30.50
2023-01-22T21:13:26.097Z,32.53
2023-01-22T21:16:31.659Z,30.67
2023-01-22T21:19:35.006Z,30.83
2023-01-22T21:22:39.545Z,32.25
2023-01-22T21:25:41.932Z,35.75
2023-01-22T21:28:44.283Z,40.92
2023-01-22T21:31:48.194Z,47.22
2023-01-22T21:34:50.699Z,217.50
2023-01-22T21:37:54.716Z,298.80
2023-01-22T21:41:04.401Z,246.27
2023-01-22T21:44:06.712Z,248.40
2023-01-22T21:47:08.971Z,129.35
2023-01-22T21:50:11.846Z,96.50
2023-01-22T21:53:15.095Z,74.20
2023-01-22T21:56:16.898Z,99.03
2023-01-22T21:59:19.585Z,67.45
2023-01-22T22:02:21.646Z,38.55
2023-01-22T22:05:23.482Z,35.80
2023-01-22T22:08:26.642Z,42.50
2023-01-22T22:11:28.718Z,33.72
2023-01-22T22:14:30.845Z,29.63
2023-01-22T22:17:32.598Z,28.25
2023-01-22T22:20:34.467Z,30.73
2023-01-22T22:23:37.833Z,32.38
2023-01-22T22:26:40.026Z,31.65
2023-01-22T22:29:41.824Z,30.27
2023-01-22T22:32:43.630Z,29.77
2023-01-22T22:35:46.190Z,32.45
2023-01-22T22:38:49.618Z,29.17
2023-01-22T22:41:51.377Z,30.77
2023-01-22T22:44:53.166Z,30.83
2023-01-22T22:47:55.011Z,34.38
2023-01-22T22:50:56.932Z,30.52
2023-01-22T22:54:01.977Z,36.10
2023-01-22T22:57:03.937Z,31.92
2023-01-22T23:00:10.098Z,34.40
2023-01-22T23:03:11.981Z,31.85
2023-01-22T23:06:16.117Z,32.45
2023-01-22T23:09:20.624Z,34.50
2023-01-22T23:12:22.397Z,32.85
2023-01-22T23:15:25.088Z,32.42
2023-01-22T23:18:26.909Z,33.47
2023-01-22T23:21:28.998Z,36.10
2023-01-22T23:24:32.209Z,31.55
2023-01-22T23:27:33.997Z,30.73
2023-01-22T23:30:35.952Z,34.28
2023-01-22T23:33:38.270Z,33.50
2023-01-22T23:36:41.468Z,31.50
2023-01-22T23:39:44.880Z,32.83
2023-01-22T23:42:48.250Z,32.38
2023-01-22T23:45:50.107Z,31.83
2023-01-22T23:48:52.190Z,31.80
2023-01-22T23:51:54.015Z,31.52
2023-01-22T23:54:57.160Z,29.52
2023-01-22T23:57:58.903Z,31.00
